createdAt,value
2017-11-23T00:01:49.959Z,96375.52
2017-11-23T00:04:16.131Z,96377.48
2017-11-23T00:06:42.227Z,96386.63
2017-11-23T00:09:08.398Z,96376.61
2017-11-23T00:11:34.613Z,96378.05
2017-11-23T00:14:00.730Z,96383.09
2017-11-23T00:16:26.918Z,96387.14
2017-11-23T00:18:53.134Z,96378.80
2017-11-23T00:21:19.309Z,96387.14
2017-11-23T00:23:45.473Z,96384.80
2017-11-23T00:26:11.728Z,96389.60
2017-11-23T00:28:37.870Z,96386.39
2017-11-23T00:31:03.990Z,96387.05
2017-11-23T00:33:30.430Z,96388.36
2017-11-23T00:35:56.574Z,96391.07
2017-11-23T00:38:22.756Z,96388.22
2017-11-23T00:40:48.957Z,96382.25
2017-11-23T00:43:15.351Z,96378.22
2017-11-23T00:45:41.578Z,96381.98
2017-11-23T00:48:07.924Z,96380.55
2017-11-23T00:50:34.258Z,96375.71
2017-11-23T00:53:00.410Z,96371.57
2017-11-23T00:55:26.647Z,96377.30
2017-11-23T00:57:52.776Z,96379.13
2017-11-23T01:00:18.918Z,96381.73
2017-11-23T01:02:45.116Z,96389.78
2017-11-23T01:05:11.605Z,96400.31
2017-11-23T01:07:37.734Z,96396.30
2017-11-23T01:10:04.192Z,96399.70
2017-11-23T01:12:30.575Z,96405.39
2017-11-23T01:14:56.765Z,96407.88
2017-11-23T01:17:23.062Z,96407.87
2017-11-23T01:19:49.170Z,96403.31
2017-11-23T01:22:21.492Z,96404.48
2017-11-23T01:24:47.749Z,96400.72
2017-11-23T01:27:14.186Z,96399.16
2017-11-23T01:29:40.536Z,96399.02
2017-11-23T01:32:06.665Z,96394.47
2017-11-23T01:34:33.005Z,96396.82
2017-11-23T01:37:05.256Z,96392.13
2017-11-23T01:39:31.674Z,96394.34
2017-11-23T01:41:57.798Z,96389.14
2017-11-23T01:44:24.092Z,96388.47
2017-11-23T01:46:50.513Z,96389.01
2017-11-23T01:49:16.719Z,96385.38
2017-11-23T01:51:43.069Z,96379.53
2017-11-23T01:54:09.205Z,96382.13
2017-11-23T01:56:35.398Z,96385.51
2017-11-23T01:59:01.889Z,96382.66
2017-11-23T02:01:28.086Z,96385.51
2017-11-23T02:03:54.390Z,96379.52
2017-11-23T02:06:20.569Z,96387.70
2017-11-23T02:08:46.913Z,96380.95
2017-11-23T02:11:13.125Z,96384.06
2017-11-23T02:13:39.373Z,96381.09
2017-11-23T02:16:05.735Z,96378.86
2017-11-23T02:18:31.819Z,96375.75
2017-11-23T02:20:57.981Z,96366.91
2017-11-23T02:23:24.473Z,96356.63
2017-11-23T02:25:50.712Z,96360.67
2017-11-23T02:28:16.995Z,96360.39
2017-11-23T02:30:43.411Z,96365.73
2017-11-23T02:33:09.570Z,96360.41
2017-11-23T02:35:35.992Z,96361.84
2017-11-23T02:38:02.399Z,96354.31
2017-11-23T02:40:28.530Z,96346.75
2017-11-23T02:43:04.976Z,96342.08
2017-11-23T02:45:31.074Z,96338.56
2017-11-23T02:47:57.230Z,96358.08
2017-11-23T02:50:23.968Z,96341.56
2017-11-23T02:52:50.136Z,96342.09
2017-11-23T02:55:16.369Z,96347.28
2017-11-23T02:57:42.473Z,96361.05
2017-11-23T03:00:08.605Z,96355.73
2017-11-23T03:02:34.745Z,96362.24
2017-11-23T03:05:00.842Z,96366.27
2017-11-23T03:07:26.950Z,96371.97
2017-11-23T03:09:53.099Z,96368.58
2017-11-23T03:12:19.238Z,96363.14
2017-11-23T03:14:45.395Z,96363.39
2017-11-23T03:17:11.514Z,96354.57
2017-11-23T03:19:37.586Z,96352.62
2017-11-23T03:22:03.745Z,96358.30
2017-11-23T03:24:29.885Z,96359.71
2017-11-23T03:26:56.019Z,96359.09
2017-11-23T03:29:22.101Z,96356.36
2017-11-23T03:31:48.166Z,96354.14
2017-11-23T03:34:14.346Z,96350.51
2017-11-23T03:36:40.453Z,96346.22
2017-11-23T03:39:06.617Z,96350.37
2017-11-23T03:41:32.708Z,96343.11
2017-11-23T03:43:58.808Z,96345.45
2017-11-23T03:46:25.021Z,96352.20
2017-11-23T03:48:51.162Z,96344.14
2017-11-23T03:51:17.304Z,96337.91
2017-11-23T03:53:43.390Z,96338.30
2017-11-23T03:56:09.514Z,96339.19
2017-11-23T03:58:35.671Z,96331.27
2017-11-23T04:01:01.826Z,96328.30
2017-11-23T04:03:27.976Z,96323.62
2017-11-23T04:05:54.110Z,96320.98
2017-11-23T04:08:20.226Z,96318.14
2017-11-23T04:10:46.439Z,96315.94
2017-11-23T04:13:12.557Z,96316.59
2017-11-23T04:15:38.707Z,96319.58
2017-11-23T04:18:04.882Z,96318.66
2017-11-23T04:20:30.995Z,96320.59
2017-11-23T04:22:57.168Z,96315.78
2017-11-23T04:25:23.249Z,96323.45
2017-11-23T04:27:49.376Z,96315.94
2017-11-23T04:30:15.518Z,96318.51
2017-11-23T04:32:41.745Z,96325.76
2017-11-23T04:35:07.890Z,96333.26
2017-11-23T04:37:34.044Z,96329.66
2017-11-23T04:40:00.160Z,96334.75
2017-11-23T04:42:26.273Z,96335.76
2017-11-23T04:44:52.394Z,96336.28
2017-11-23T04:47:18.511Z,96331.86
2017-11-23T04:49:44.630Z,96326.02
2017-11-23T04:52:10.705Z,96334.03
2017-11-23T04:54:36.844Z,96326.63
2017-11-23T04:57:02.970Z,96339.66
2017-11-23T04:59:29.122Z,96338.97
2017-11-23T05:01:55.320Z,96341.44
2017-11-23T05:04:21.437Z,96345.23
2017-11-23T05:06:47.557Z,96345.19
2017-11-23T05:09:13.709Z,96341.38
2017-11-23T05:11:39.830Z,96338.80
2017-11-23T05:14:06.025Z,96341.33
2017-11-23T05:16:33.509Z,96345.50
2017-11-23T05:18:59.608Z,96348.13
2017-11-23T05:21:25.762Z,96360.78
2017-11-23T05:23:51.867Z,96350.25
2017-11-23T05:26:18.075Z,96359.75
2017-11-23T05:28:44.376Z,96361.16
2017-11-23T05:31:10.800Z,96366.36
2017-11-23T05:33:37.021Z,96372.79
2017-11-23T05:36:03.145Z,96364.09
2017-11-23T05:38:29.241Z,96364.23
2017-11-23T05:40:55.415Z,96371.63
2017-11-23T05:43:21.555Z,96376.82
2017-11-23T05:45:48.150Z,96374.56
2017-11-23T05:48:14.285Z,96378.20
2017-11-23T05:50:40.456Z,96376.89
2017-11-23T05:53:06.527Z,96383.92
2017-11-23T05:55:32.662Z,96384.67
2017-11-23T05:57:58.790Z,96385.00
2017-11-23T06:00:25.021Z,96387.85
2017-11-23T06:02:51.126Z,96388.59
2017-11-23T06:05:17.257Z,96389.02
2017-11-23T06:07:43.452Z,96392.73
2017-11-23T06:10:09.528Z,96395.06
2017-11-23T06:12:35.713Z,96392.84
2017-11-23T06:15:01.829Z,96390.66
2017-11-23T06:17:27.941Z,96384.42
2017-11-23T06:19:54.019Z,96387.80
2017-11-23T06:22:20.431Z,96383.91
2017-11-23T06:24:47.029Z,96383.02
2017-11-23T06:27:16.405Z,96379.68
2017-11-23T06:29:42.550Z,96387.73
2017-11-23T06:32:08.617Z,96386.74
2017-11-23T06:34:34.761Z,96388.05
2017-11-23T06:37:01.236Z,96384.01
2017-11-23T06:39:27.354Z,96383.96
2017-11-23T06:41:53.437Z,96383.95
2017-11-23T06:44:19.577Z,96393.50
2017-11-23T06:46:45.674Z,96389.56
2017-11-23T06:49:11.834Z,96389.69
2017-11-23T06:51:37.953Z,96389.22
2017-11-23T06:54:04.080Z,96400.91
2017-11-23T06:56:30.194Z,96402.34
2017-11-23T06:58:56.389Z,96393.17
2017-11-23T07:01:22.499Z,96396.49
2017-11-23T07:03:48.610Z,96405.71
2017-11-23T07:06:14.831Z,96394.80
2017-11-23T07:08:40.965Z,96401.73
2017-11-23T07:11:07.109Z,96385.06
2017-11-23T07:13:33.329Z,96385.27
2017-11-23T07:15:59.489Z,96381.70
2017-11-23T07:18:25.653Z,96390.41
2017-11-23T07:20:51.837Z,96396.87
2017-11-23T07:23:17.998Z,96398.63
2017-11-23T07:25:44.110Z,96404.98
2017-11-23T07:28:10.330Z,96392.92
2017-11-23T07:30:36.422Z,96396.73
2017-11-23T07:33:02.497Z,96404.87
2017-11-23T07:35:28.652Z,96396.56
2017-11-23T07:37:54.793Z,96399.20
2017-11-23T07:40:20.952Z,96402.81
2017-11-23T07:42:47.114Z,96398.99
2017-11-23T07:45:13.222Z,96399.67
2017-11-23T07:47:39.322Z,96407.14
2017-11-23T07:50:05.481Z,96411.47
2017-11-23T07:52:31.581Z,96398.91
2017-11-23T07:54:57.748Z,96409.57
2017-11-23T07:57:23.841Z,96407.27
2017-11-23T07:59:49.928Z,96403.76
2017-11-23T08:02:16.075Z,96400.93
2017-11-23T08:04:42.205Z,96413.17
2017-11-23T08:07:08.410Z,96421.25
2017-11-23T08:09:34.550Z,96425.41
2017-11-23T08:12:00.703Z,96423.98
2017-11-23T08:14:26.823Z,96425.78
2017-11-23T08:16:52.990Z,96427.47
2017-11-23T08:19:19.099Z,96416.16
2017-11-23T08:21:45.268Z,96414.49
2017-11-23T08:24:11.429Z,96417.89
2017-11-23T08:26:37.530Z,96422.84
2017-11-23T08:29:03.694Z,96423.50
2017-11-23T08:31:29.821Z,96429.72
2017-11-23T08:33:55.911Z,96438.30
2017-11-23T08:36:22.066Z,96440.80
2017-11-23T08:38:48.151Z,96433.98
2017-11-23T08:41:14.280Z,96443.45
2017-11-23T08:43:40.458Z,96443.73
2017-11-23T08:46:06.570Z,96441.11
2017-11-23T08:48:32.668Z,96442.52
2017-11-23T08:50:58.809Z,96446.64
2017-11-23T08:53:24.982Z,96451.80
2017-11-23T08:55:51.129Z,96446.41
2017-11-23T08:58:17.401Z,96449.89
2017-11-23T09:00:43.527Z,96445.61
2017-11-23T09:03:09.636Z,96450.34
2017-11-23T09:05:41.778Z,96451.02
2017-11-23T09:08:07.899Z,96457.26
2017-11-23T09:10:34.001Z,96457.28
2017-11-23T09:13:00.111Z,96466.48
2017-11-23T09:15:26.221Z,96474.59
2017-11-23T09:17:52.338Z,96471.90
2017-11-23T09:20:18.456Z,96471.54
2017-11-23T09:22:44.597Z,96471.14
2017-11-23T09:25:10.682Z,96479.95
2017-11-23T09:27:36.796Z,96478.05
2017-11-23T09:30:03.005Z,96475.48
2017-11-23T09:32:29.175Z,96465.90
2017-11-23T09:34:55.413Z,96468.02
2017-11-23T09:37:21.562Z,96473.39
2017-11-23T09:39:47.681Z,96466.33
2017-11-23T09:42:13.785Z,96464.64
2017-11-23T09:44:39.900Z,96469.77
2017-11-23T09:47:06.033Z,96472.50
2017-11-23T09:49:32.197Z,96462.81
2017-11-23T09:51:58.253Z,96465.37
2017-11-23T09:54:24.386Z,96461.08
2017-11-23T09:56:50.538Z,96457.39
2017-11-23T09:59:16.726Z,96462.56
2017-11-23T10:01:42.837Z,96458.55
2017-11-23T10:04:08.964Z,96453.55
2017-11-23T10:06:35.093Z,96453.50
2017-11-23T10:09:01.288Z,96459.65
2017-11-23T10:11:27.443Z,96459.84
2017-11-23T10:13:53.552Z,96456.48
2017-11-23T10:16:19.761Z,96448.39
2017-11-23T10:18:45.890Z,96437.09
2017-11-23T10:21:12.041Z,96443.45
2017-11-23T10:23:38.141Z,96442.97
2017-11-23T10:26:04.233Z,96446.45
2017-11-23T10:28:30.358Z,96455.67
2017-11-23T10:30:56.466Z,96459.74
2017-11-23T10:33:22.673Z,96467.19
2017-11-23T10:35:48.790Z,96464.75
2017-11-23T10:38:14.891Z,96458.00
2017-11-23T10:40:40.991Z,96457.22
2017-11-23T10:43:07.140Z,96452.84
2017-11-23T10:45:33.256Z,96455.92
2017-11-23T10:47:59.367Z,96448.36
2017-11-23T10:50:25.571Z,96452.01
2017-11-23T10:52:51.649Z,96464.27
2017-11-23T10:55:17.749Z,96461.97
2017-11-23T10:57:44.653Z,96461.62
2017-11-23T11:00:10.765Z,96456.19
2017-11-23T11:02:36.906Z,96458.42
2017-11-23T11:05:03.086Z,96454.30
2017-11-23T11:07:29.235Z,96456.35
2017-11-23T11:09:55.457Z,96459.73
2017-11-23T11:12:21.561Z,96452.23
2017-11-23T11:14:47.757Z,96456.00
2017-11-23T11:17:13.866Z,96461.27
2017-11-23T11:19:40.045Z,96464.95
2017-11-23T11:22:06.260Z,96452.77
2017-11-23T11:27:25.509Z,96461.67
2017-11-23T11:29:51.645Z,96460.05
2017-11-23T11:32:17.811Z,96461.02
2017-11-23T11:34:43.997Z,96470.68
2017-11-23T11:37:10.108Z,96458.28
2017-11-23T11:39:36.313Z,96455.32
2017-11-23T11:42:02.491Z,96455.98
2017-11-23T11:44:28.673Z,96466.36
2017-11-23T11:46:54.871Z,96462.91
2017-11-23T11:49:21.021Z,96472.88
2017-11-23T11:51:47.217Z,96469.05
2017-11-23T11:54:13.463Z,96474.03
2017-11-23T11:56:39.646Z,96475.28
2017-11-23T11:59:05.789Z,96466.52
2017-11-23T12:01:31.978Z,96471.16
2017-11-23T12:03:58.110Z,96467.99
2017-11-23T12:06:24.333Z,96477.19
2017-11-23T12:08:50.511Z,96471.92
2017-11-23T12:11:16.677Z,96481.47
2017-11-23T12:16:55.042Z,96480.00
2017-11-23T12:19:21.197Z,96480.14
2017-11-23T12:21:51.909Z,96476.73
2017-11-23T12:24:28.054Z,96468.65
2017-11-23T12:26:54.172Z,96479.19
2017-11-23T12:32:22.562Z,96473.70
2017-11-23T12:34:48.702Z,96473.02
2017-11-23T12:37:14.857Z,96472.61
2017-11-23T12:39:40.948Z,96462.56
2017-11-23T12:42:07.104Z,96466.48
2017-11-23T12:44:33.241Z,96458.55
2017-11-23T12:46:59.359Z,96459.53
2017-11-23T12:49:25.512Z,96464.39
2017-11-23T12:51:51.608Z,96467.89
2017-11-23T12:54:17.819Z,96468.98
2017-11-23T12:56:43.988Z,96467.02
2017-11-23T12:59:10.117Z,96462.19
2017-11-23T13:01:36.230Z,96462.69
2017-11-23T13:04:02.358Z,96466.56
2017-11-23T13:06:28.453Z,96466.47
2017-11-23T13:08:54.595Z,96474.64
2017-11-23T13:11:20.733Z,96479.13
2017-11-23T13:13:46.860Z,96475.48
2017-11-23T13:16:12.993Z,96482.20
2017-11-23T13:18:39.204Z,96479.58
2017-11-23T13:21:05.374Z,96481.84
2017-11-23T13:23:31.493Z,96479.05
2017-11-23T13:25:57.646Z,96477.36
2017-11-23T13:28:23.706Z,96480.15
2017-11-23T13:30:49.834Z,96479.77
2017-11-23T13:33:16.009Z,96478.59
2017-11-23T13:35:42.159Z,96475.89
2017-11-23T13:38:08.391Z,96470.23
2017-11-23T13:40:34.483Z,96465.41
2017-11-23T13:43:00.586Z,96472.92
2017-11-23T13:45:26.714Z,96470.84
2017-11-23T13:47:52.925Z,96471.40
2017-11-23T13:50:19.042Z,96467.62
2017-11-23T13:52:45.147Z,96476.92
2017-11-23T13:55:11.274Z,96477.34
2017-11-23T13:57:37.474Z,96486.00
2017-11-23T14:00:03.807Z,96452.31
2017-11-23T14:02:29.958Z,96484.69
2017-11-23T14:04:56.108Z,96492.55
2017-11-23T14:07:22.270Z,96494.66
2017-11-23T14:09:48.442Z,96493.50
2017-11-23T14:12:14.643Z,96490.16
2017-11-23T14:14:40.786Z,96492.41
2017-11-23T14:17:06.941Z,96485.95
2017-11-23T14:19:33.019Z,96490.84
2017-11-23T14:21:59.151Z,96497.36
2017-11-23T14:24:25.381Z,96490.08
2017-11-23T14:26:51.505Z,96495.42
2017-11-23T14:29:17.678Z,96502.41
2017-11-23T14:31:43.814Z,96500.77
2017-11-23T14:34:09.950Z,96503.16
2017-11-23T14:36:36.287Z,96497.23
2017-11-23T14:39:12.571Z,96503.52
2017-11-23T14:41:38.890Z,96501.91
2017-11-23T14:44:05.135Z,96502.18
2017-11-23T14:46:31.521Z,96499.42
2017-11-23T14:48:58.110Z,96498.80
2017-11-23T14:51:24.532Z,96501.91
2017-11-23T14:53:51.868Z,96491.64
2017-11-23T14:56:28.139Z,96489.44
2017-11-23T14:58:55.226Z,96497.02
2017-11-23T15:01:21.677Z,96499.29
2017-11-23T15:03:47.939Z,96499.23
2017-11-23T15:06:14.075Z,96500.27
2017-11-23T15:08:40.199Z,96502.52
2017-11-23T15:11:06.387Z,96502.64
2017-11-23T15:13:32.565Z,96503.30
2017-11-23T15:15:58.743Z,96514.19
2017-11-23T15:18:24.897Z,96507.70
2017-11-23T15:20:51.094Z,96510.08
2017-11-23T15:23:17.373Z,96513.03
2017-11-23T15:25:43.606Z,96506.49
2017-11-23T15:28:09.804Z,96502.61
2017-11-23T15:30:36.028Z,96508.81
2017-11-23T15:33:02.162Z,96506.47
2017-11-23T15:35:28.433Z,96500.53
2017-11-23T15:37:54.559Z,96502.91
2017-11-23T15:40:21.583Z,96503.45
2017-11-23T15:42:47.748Z,96496.10
2017-11-23T15:45:13.939Z,96502.75
2017-11-23T15:47:40.061Z,96517.53
2017-11-23T15:50:06.240Z,96512.16
2017-11-23T15:52:32.369Z,96517.11
2017-11-23T15:54:58.547Z,96503.45
2017-11-23T15:57:24.762Z,96502.55
2017-11-23T15:59:50.894Z,96505.80
2017-11-23T16:02:17.792Z,96510.00
2017-11-23T16:04:44.149Z,96508.73
2017-11-23T16:07:11.621Z,96511.61
2017-11-23T16:09:38.070Z,96512.61
2017-11-23T16:12:04.245Z,96525.87
2017-11-23T16:14:30.620Z,96540.50
2017-11-23T16:16:56.981Z,96539.62
2017-11-23T16:19:23.320Z,96538.16
2017-11-23T16:21:49.705Z,96534.16
2017-11-23T16:24:16.232Z,96545.23
2017-11-23T16:26:42.540Z,96545.84
2017-11-23T16:29:08.907Z,96549.52
2017-11-23T16:31:35.352Z,96555.37
2017-11-23T16:34:01.818Z,96564.24
2017-11-23T16:39:36.210Z,96567.81
2017-11-23T16:45:13.518Z,96571.77
2017-11-23T16:50:52.891Z,96577.39
2017-11-23T16:53:25.414Z,96577.80
2017-11-23T16:56:00.321Z,96574.36
2017-11-23T16:58:47.681Z,96583.01
2017-11-23T17:01:20.932Z,96581.98
2017-11-23T17:03:53.518Z,96575.44
2017-11-23T17:06:24.786Z,96574.83
2017-11-23T17:12:09.537Z,96574.72
2017-11-23T17:14:41.814Z,96585.58
2017-11-23T17:17:14.109Z,96583.80
2017-11-23T17:19:40.287Z,96587.38
2017-11-23T17:22:06.580Z,96590.48
2017-11-23T17:24:33.039Z,96586.98
2017-11-23T17:26:59.182Z,96587.95
2017-11-23T17:29:25.302Z,96594.22
2017-11-23T17:31:51.477Z,96590.11
2017-11-23T17:34:17.699Z,96592.00
2017-11-23T17:36:43.810Z,96594.66
2017-11-23T17:39:09.958Z,96592.77
2017-11-23T17:41:36.193Z,96592.09
2017-11-23T17:44:02.337Z,96594.31
2017-11-23T17:46:28.577Z,96593.36
2017-11-23T17:48:54.769Z,96598.20
2017-11-23T17:51:20.905Z,96594.22
2017-11-23T17:53:47.358Z,96598.92
2017-11-23T17:56:13.538Z,96575.30
2017-11-23T17:58:39.715Z,96599.52
2017-11-23T18:01:06.032Z,96598.64
2017-11-23T18:03:33.182Z,96598.53
2017-11-23T18:05:59.298Z,96603.78
2017-11-23T18:08:25.778Z,96599.47
2017-11-23T18:10:51.894Z,96604.66
2017-11-23T18:13:18.081Z,96604.63
2017-11-23T18:15:44.238Z,96609.76
2017-11-23T18:18:10.715Z,96604.43
2017-11-23T18:20:36.890Z,96610.55
2017-11-23T18:23:03.104Z,96608.80
2017-11-23T18:25:29.247Z,96611.16
2017-11-23T18:27:55.464Z,96615.42
2017-11-23T18:30:21.687Z,96617.86
2017-11-23T18:32:47.813Z,96614.75
2017-11-23T18:35:13.953Z,96621.27
2017-11-23T18:37:40.097Z,96618.73
2017-11-23T18:40:06.258Z,96626.42
2017-11-23T18:42:32.474Z,96626.42
2017-11-23T18:44:58.627Z,96628.36
2017-11-23T18:47:24.766Z,96628.02
2017-11-23T18:49:50.865Z,96632.30
2017-11-23T18:52:17.015Z,96636.61
2017-11-23T18:54:43.149Z,96638.48
2017-11-23T18:57:09.361Z,96631.23
2017-11-23T18:59:35.525Z,96627.24
2017-11-23T19:02:02.461Z,96634.39
2017-11-23T19:04:28.654Z,96635.66
2017-11-23T19:06:54.867Z,96636.87
2017-11-23T19:09:21.043Z,96640.84
2017-11-23T19:11:47.168Z,96647.87
2017-11-23T19:14:13.329Z,96639.77
2017-11-23T19:16:39.498Z,96646.64
2017-11-23T19:19:05.689Z,96651.44
2017-11-23T19:21:31.817Z,96654.63
2017-11-23T19:23:57.934Z,96652.12
2017-11-23T19:26:24.106Z,96654.33
2017-11-23T19:28:50.236Z,96661.83
2017-11-23T19:31:16.393Z,96658.11
2017-11-23T19:33:42.563Z,96658.36
2017-11-23T19:36:08.701Z,96657.44
2017-11-23T19:38:34.848Z,96661.58
2017-11-23T19:41:01.008Z,96666.51
2017-11-23T19:43:27.165Z,96660.98
2017-11-23T19:45:53.375Z,96660.42
2017-11-23T19:48:21.882Z,96652.95
2017-11-23T19:50:49.421Z,96649.52
2017-11-23T19:53:15.578Z,96655.73
2017-11-23T19:55:41.730Z,96655.17
2017-11-23T19:58:08.013Z,96659.31
2017-11-23T20:00:34.265Z,96672.38
2017-11-23T20:03:00.514Z,96675.14
2017-11-23T20:05:26.732Z,96670.15
2017-11-23T20:07:52.975Z,96666.66
2017-11-23T20:10:19.172Z,96675.07
2017-11-23T20:12:45.346Z,96662.52
2017-11-23T20:15:11.527Z,96660.98
2017-11-23T20:17:37.714Z,96669.60
2017-11-23T20:20:04.332Z,96666.55
2017-11-23T20:22:30.483Z,96669.27
2017-11-23T20:24:56.633Z,96670.58
2017-11-23T20:27:22.816Z,96681.94
2017-11-23T20:29:48.990Z,96680.78
2017-11-23T20:32:15.142Z,96686.06
2017-11-23T20:34:41.327Z,96690.45
2017-11-23T20:37:07.495Z,96696.19
2017-11-23T20:39:33.682Z,96700.14
2017-11-23T20:41:59.853Z,96691.81
2017-11-23T20:44:26.088Z,96690.63
2017-11-23T20:46:52.240Z,96689.16
2017-11-23T20:49:18.366Z,96691.06
2017-11-23T20:51:44.545Z,96687.41
2017-11-23T20:54:10.727Z,96685.39
2017-11-23T20:56:36.934Z,96683.63
2017-11-23T20:59:03.079Z,96690.13
2017-11-23T21:01:29.333Z,96697.47
2017-11-23T21:03:56.439Z,96695.55
2017-11-23T21:06:22.585Z,96678.33
2017-11-23T21:08:48.740Z,96694.27
2017-11-23T21:11:14.883Z,96699.37
2017-11-23T21:13:41.019Z,96697.47
2017-11-23T21:16:07.206Z,96692.13
2017-11-23T21:18:33.997Z,96698.64
2017-11-23T21:21:00.197Z,96709.91
2017-11-23T21:23:26.291Z,96703.53
2017-11-23T21:25:52.415Z,96704.45
2017-11-23T21:28:18.579Z,96706.89
2017-11-23T21:30:44.699Z,96701.93
2017-11-23T21:33:11.737Z,96704.02
2017-11-23T21:35:37.909Z,96694.78
2017-11-23T21:38:04.055Z,96698.17
2017-11-23T21:40:30.215Z,96699.14
2017-11-23T21:42:56.370Z,96699.03
2017-11-23T21:45:22.524Z,96706.38
2017-11-23T21:47:48.715Z,96712.84
2017-11-23T21:50:14.835Z,96710.59
2017-11-23T21:52:41.146Z,96711.45
2017-11-23T21:55:07.317Z,96715.95
2017-11-23T21:57:33.467Z,96714.95
2017-11-23T22:00:00.456Z,96720.48
2017-11-23T22:02:26.642Z,96717.15
2017-11-23T22:04:52.750Z,96728.33
2017-11-23T22:07:18.899Z,96720.94
2017-11-23T22:09:45.018Z,96719.27
2017-11-23T22:12:11.110Z,96718.25
2017-11-23T22:14:37.291Z,96725.59
2017-11-23T22:17:03.441Z,96720.50
2017-11-23T22:19:29.583Z,96713.95
2017-11-23T22:21:55.676Z,96718.19
2017-11-23T22:24:21.874Z,96718.36
2017-11-23T22:26:48.018Z,96711.62
2017-11-23T22:29:14.166Z,96708.36
2017-11-23T22:31:40.322Z,96714.34
2017-11-23T22:34:06.497Z,96713.62
2017-11-23T22:36:32.566Z,96713.81
2017-11-23T22:38:58.717Z,96723.75
2017-11-23T22:41:24.964Z,96719.34
2017-11-23T22:43:51.197Z,96726.53
2017-11-23T22:46:17.619Z,96719.48
2017-11-23T22:48:43.974Z,96718.79
2017-11-23T22:51:10.186Z,96719.97
2017-11-23T22:53:36.486Z,96725.66
2017-11-23T22:56:02.851Z,96717.32
2017-11-23T22:58:28.993Z,96725.08
2017-11-23T23:00:55.093Z,96730.77
2017-11-23T23:03:21.306Z,96741.14
2017-11-23T23:05:47.627Z,96733.69
2017-11-23T23:08:13.836Z,96733.35
2017-11-23T23:10:40.055Z,96731.84
2017-11-23T23:13:06.291Z,96729.39
2017-11-23T23:15:32.535Z,96728.72
2017-11-23T23:17:58.698Z,96734.53
2017-11-23T23:20:24.947Z,96728.91
2017-11-23T23:22:51.141Z,96729.42
2017-11-23T23:25:17.475Z,96728.85
2017-11-23T23:27:45.539Z,96733.20
2017-11-23T23:30:11.759Z,96731.50
2017-11-23T23:32:37.861Z,96732.13
2017-11-23T23:35:04.128Z,96735.64
2017-11-23T23:37:30.186Z,96738.29
2017-11-23T23:39:56.328Z,96733.92
2017-11-23T23:42:22.457Z,96727.17
2017-11-23T23:44:48.505Z,96723.94
2017-11-23T23:47:14.617Z,96728.76
2017-11-23T23:49:40.733Z,96728.80
2017-11-23T23:52:06.814Z,96727.88
2017-11-23T23:54:32.940Z,96726.45
2017-11-23T23:56:59.033Z,96719.12
2017-11-23T23:59:25.262Z,96723.02
